sensor_id;sensor_type;location;lat;lon;timestamp;pressure;altitude;pressure_sealevel;temperature;humidity
50710;BME280;37033;49.994;21.992;2022-12-18T00:02:30;100607.88;;;-5.40;87.25
50710;BME280;37033;49.994;21.992;2022-12-18T00:05:20;100613.50;;;-5.39;87.30
50710;BME280;37033;49.994;21.992;2022-12-18T00:08:10;100617.41;;;-5.38;87.42
50710;BME280;37033;49.994;21.992;2022-12-18T00:11:07;100625.52;;;-5.37;87.41
50710;BME280;37033;49.994;21.992;2022-12-18T00:13:58;100630.70;;;-5.35;87.41
50710;BME280;37033;49.994;21.992;2022-12-18T00:16:48;100637.27;;;-5.33;87.40
50710;BME280;37033;49.994;21.992;2022-12-18T00:19:38;100637.55;;;-5.32;87.33
50710;BME280;37033;49.994;21.992;2022-12-18T00:22:28;100643.30;;;-5.31;87.45
50710;BME280;37033;49.994;21.992;2022-12-18T00:25:18;100645.92;;;-5.30;87.47
50710;BME280;37033;49.994;21.992;2022-12-18T00:28:08;100646.65;;;-5.28;87.46
50710;BME280;37033;49.994;21.992;2022-12-18T00:31:03;100649.11;;;-5.28;87.37
50710;BME280;37033;49.994;21.992;2022-12-18T00:33:53;100651.10;;;-5.29;87.55
50710;BME280;37033;49.994;21.992;2022-12-18T00:36:43;100656.55;;;-5.28;87.45
50710;BME280;37033;49.994;21.992;2022-12-18T00:39:33;100659.80;;;-5.29;87.56
50710;BME280;37033;49.994;21.992;2022-12-18T00:42:23;100663.95;;;-5.28;87.54
50710;BME280;37033;49.994;21.992;2022-12-18T00:45:32;100667.77;;;-5.27;87.61
50710;BME280;37033;49.994;21.992;2022-12-18T00:48:22;100672.73;;;-5.27;87.63
50710;BME280;37033;49.994;21.992;2022-12-18T00:51:12;100678.69;;;-5.27;87.60
50710;BME280;37033;49.994;21.992;2022-12-18T00:54:02;100682.91;;;-5.26;87.67
50710;BME280;37033;49.994;21.992;2022-12-18T00:56:52;100686.68;;;-5.27;87.76
50710;BME280;37033;49.994;21.992;2022-12-18T00:59:43;100688.14;;;-5.28;87.79
50710;BME280;37033;49.994;21.992;2022-12-18T01:02:33;100694.77;;;-5.29;87.82
50710;BME280;37033;49.994;21.992;2022-12-18T01:05:24;100704.70;;;-5.29;87.77
50710;BME280;37033;49.994;21.992;2022-12-18T01:08:14;100710.68;;;-5.32;87.86
50710;BME280;37033;49.994;21.992;2022-12-18T01:11:08;100718.48;;;-5.35;87.81
50710;BME280;37033;49.994;21.992;2022-12-18T01:14:08;100722.71;;;-5.37;87.69
50710;BME280;37033;49.994;21.992;2022-12-18T01:16:58;100726.80;;;-5.43;87.52
50710;BME280;37033;49.994;21.992;2022-12-18T01:19:48;100728.09;;;-5.46;87.52
50710;BME280;37033;49.994;21.992;2022-12-18T01:22:38;100728.90;;;-5.50;87.37
50710;BME280;37033;49.994;21.992;2022-12-18T01:25:28;100735.36;;;-5.54;87.15
50710;BME280;37033;49.994;21.992;2022-12-18T01:28:18;100746.17;;;-5.57;87.08
50710;BME280;37033;49.994;21.992;2022-12-18T01:31:17;100751.05;;;-5.62;86.89
50710;BME280;37033;49.994;21.992;2022-12-18T01:34:07;100753.96;;;-5.66;86.92
50710;BME280;37033;49.994;21.992;2022-12-18T01:36:57;100761.52;;;-5.67;86.82
50710;BME280;37033;49.994;21.992;2022-12-18T01:39:47;100766.77;;;-5.72;86.73
50710;BME280;37033;49.994;21.992;2022-12-18T01:42:38;100765.77;;;-5.79;86.70
50710;BME280;37033;49.994;21.992;2022-12-18T01:45:29;100772.29;;;-5.81;86.91
50710;BME280;37033;49.994;21.992;2022-12-18T01:48:19;100771.54;;;-5.83;86.96
50710;BME280;37033;49.994;21.992;2022-12-18T01:51:11;100775.19;;;-5.85;87.10
50710;BME280;37033;49.994;21.992;2022-12-18T01:54:00;100779.38;;;-5.87;87.07
50710;BME280;37033;49.994;21.992;2022-12-18T01:56:50;100786.46;;;-5.90;87.18
50710;BME280;37033;49.994;21.992;2022-12-18T01:59:42;100789.15;;;-5.93;87.29
50710;BME280;37033;49.994;21.992;2022-12-18T02:02:32;100791.88;;;-5.94;87.34
50710;BME280;37033;49.994;21.992;2022-12-18T02:05:31;100791.63;;;-5.96;87.52
50710;BME280;37033;49.994;21.992;2022-12-18T02:08:26;100796.09;;;-5.94;87.58
50710;BME280;37033;49.994;21.992;2022-12-18T02:11:27;100792.05;;;-5.94;87.60
50710;BME280;37033;49.994;21.992;2022-12-18T02:14:28;100798.73;;;-5.94;87.71
50710;BME280;37033;49.994;21.992;2022-12-18T02:17:25;100801.25;;;-5.95;87.77
50710;BME280;37033;49.994;21.992;2022-12-18T02:20:20;100806.27;;;-5.93;87.83
50710;BME280;37033;49.994;21.992;2022-12-18T02:23:15;100804.84;;;-5.92;87.88
50710;BME280;37033;49.994;21.992;2022-12-18T02:26:14;100810.30;;;-5.92;88.01
50710;BME280;37033;49.994;21.992;2022-12-18T02:29:10;100808.47;;;-5.91;88.01
50710;BME280;37033;49.994;21.992;2022-12-18T02:32:03;100806.42;;;-5.89;87.99
50710;BME280;37033;49.994;21.992;2022-12-18T02:34:57;100810.48;;;-5.87;88.10
50710;BME280;37033;49.994;21.992;2022-12-18T02:37:54;100816.92;;;-5.86;88.10
50710;BME280;37033;49.994;21.992;2022-12-18T02:40:45;100825.59;;;-5.83;88.11
50710;BME280;37033;49.994;21.992;2022-12-18T02:43:35;100826.86;;;-5.81;88.19
50710;BME280;37033;49.994;21.992;2022-12-18T02:46:33;100836.42;;;-5.82;88.16
50710;BME280;37033;49.994;21.992;2022-12-18T02:49:34;100841.71;;;-5.79;88.16
50710;BME280;37033;49.994;21.992;2022-12-18T02:52:33;100846.74;;;-5.78;88.20
50710;BME280;37033;49.994;21.992;2022-12-18T02:55:37;100848.23;;;-5.79;88.09
50710;BME280;37033;49.994;21.992;2022-12-18T02:58:36;100846.20;;;-5.80;88.13
50710;BME280;37033;49.994;21.992;2022-12-18T03:01:33;100843.09;;;-5.81;88.11
50710;BME280;37033;49.994;21.992;2022-12-18T03:04:28;100844.12;;;-5.83;88.13
50710;BME280;37033;49.994;21.992;2022-12-18T03:07:23;100849.29;;;-5.84;88.08
50710;BME280;37033;49.994;21.992;2022-12-18T03:10:18;100851.17;;;-5.86;88.16
50710;BME280;37033;49.994;21.992;2022-12-18T03:13:11;100855.19;;;-5.85;88.07
50710;BME280;37033;49.994;21.992;2022-12-18T03:16:05;100860.67;;;-5.85;88.11
50710;BME280;37033;49.994;21.992;2022-12-18T03:18:58;100863.02;;;-5.86;88.11
50710;BME280;37033;49.994;21.992;2022-12-18T03:21:51;100865.29;;;-5.86;88.09
50710;BME280;37033;49.994;21.992;2022-12-18T03:24:43;100867.81;;;-5.84;88.13
50710;BME280;37033;49.994;21.992;2022-12-18T03:27:35;100874.21;;;-5.82;88.05
50710;BME280;37033;49.994;21.992;2022-12-18T03:30:29;100874.74;;;-5.82;88.02
50710;BME280;37033;49.994;21.992;2022-12-18T03:33:25;100878.98;;;-5.82;87.84
50710;BME280;37033;49.994;21.992;2022-12-18T03:36:16;100877.97;;;-5.83;87.78
50710;BME280;37033;49.994;21.992;2022-12-18T03:39:07;100882.68;;;-5.82;87.81
50710;BME280;37033;49.994;21.992;2022-12-18T03:42:01;100892.48;;;-5.81;87.77
50710;BME280;37033;49.994;21.992;2022-12-18T03:45:00;100896.31;;;-5.80;87.75
50710;BME280;37033;49.994;21.992;2022-12-18T03:47:59;100902.23;;;-5.78;87.68
50710;BME280;37033;49.994;21.992;2022-12-18T03:50:57;100911.39;;;-5.78;87.61
50710;BME280;37033;49.994;21.992;2022-12-18T03:53:52;100913.78;;;-5.79;87.56
50710;BME280;37033;49.994;21.992;2022-12-18T03:56:47;100912.77;;;-5.80;87.57
50710;BME280;37033;49.994;21.992;2022-12-18T03:59:41;100922.55;;;-5.79;87.41
50710;BME280;37033;49.994;21.992;2022-12-18T04:02:33;100921.70;;;-5.82;87.18
50710;BME280;37033;49.994;21.992;2022-12-18T04:05:25;100926.05;;;-5.86;86.85
50710;BME280;37033;49.994;21.992;2022-12-18T04:08:16;100928.05;;;-5.90;86.91
50710;BME280;37033;49.994;21.992;2022-12-18T04:11:07;100932.63;;;-5.92;86.82
50710;BME280;37033;49.994;21.992;2022-12-18T04:13:58;100933.76;;;-5.96;86.58
50710;BME280;37033;49.994;21.992;2022-12-18T04:16:49;100938.91;;;-6.02;86.37
50710;BME280;37033;49.994;21.992;2022-12-18T04:19:39;100942.38;;;-6.06;86.15
50710;BME280;37033;49.994;21.992;2022-12-18T04:22:29;100942.00;;;-6.12;86.04
50710;BME280;37033;49.994;21.992;2022-12-18T04:25:18;100954.30;;;-6.17;85.78
50710;BME280;37033;49.994;21.992;2022-12-18T04:28:08;100958.84;;;-6.22;85.68
50710;BME280;37033;49.994;21.992;2022-12-18T04:30:58;100963.98;;;-6.25;85.78
50710;BME280;37033;49.994;21.992;2022-12-18T04:33:48;100974.98;;;-6.26;85.76
50710;BME280;37033;49.994;21.992;2022-12-18T04:36:38;100981.26;;;-6.28;85.85
50710;BME280;37033;49.994;21.992;2022-12-18T04:39:28;100985.26;;;-6.27;85.84
50710;BME280;37033;49.994;21.992;2022-12-18T04:42:18;100984.48;;;-6.26;85.88
50710;BME280;37033;49.994;21.992;2022-12-18T04:45:10;100988.40;;;-6.26;85.57
50710;BME280;37033;49.994;21.992;2022-12-18T04:48:00;100988.81;;;-6.27;85.50
50710;BME280;37033;49.994;21.992;2022-12-18T04:50:50;100992.73;;;-6.28;85.66
50710;BME280;37033;49.994;21.992;2022-12-18T04:53:40;100995.73;;;-6.28;85.45
50710;BME280;37033;49.994;21.992;2022-12-18T04:56:32;101005.60;;;-6.28;85.40
50710;BME280;37033;49.994;21.992;2022-12-18T04:59:22;101007.50;;;-6.27;85.44
50710;BME280;37033;49.994;21.992;2022-12-18T05:02:12;101010.42;;;-6.26;85.49
50710;BME280;37033;49.994;21.992;2022-12-18T05:05:01;101006.18;;;-6.25;85.67
50710;BME280;37033;49.994;21.992;2022-12-18T05:07:51;101005.83;;;-6.23;85.55
50710;BME280;37033;49.994;21.992;2022-12-18T05:10:41;101009.84;;;-6.22;85.57
50710;BME280;37033;49.994;21.992;2022-12-18T05:13:31;101008.05;;;-6.21;85.55
50710;BME280;37033;49.994;21.992;2022-12-18T05:16:21;101012.14;;;-6.19;85.44
50710;BME280;37033;49.994;21.992;2022-12-18T05:19:11;101017.25;;;-6.19;85.24
50710;BME280;37033;49.994;21.992;2022-12-18T05:22:01;101020.95;;;-6.19;85.28
50710;BME280;37033;49.994;21.992;2022-12-18T05:24:52;101028.16;;;-6.19;85.28
50710;BME280;37033;49.994;21.992;2022-12-18T05:27:42;101030.66;;;-6.19;85.38
50710;BME280;37033;49.994;21.992;2022-12-18T05:30:31;101034.93;;;-6.17;85.37
50710;BME280;37033;49.994;21.992;2022-12-18T05:33:22;101037.15;;;-6.15;85.36
50710;BME280;37033;49.994;21.992;2022-12-18T05:36:13;101041.20;;;-6.16;85.28
50710;BME280;37033;49.994;21.992;2022-12-18T05:39:03;101046.98;;;-6.14;85.28
50710;BME280;37033;49.994;21.992;2022-12-18T05:41:53;101052.08;;;-6.14;85.09
50710;BME280;37033;49.994;21.992;2022-12-18T05:44:42;101049.79;;;-6.14;85.03
50710;BME280;37033;49.994;21.992;2022-12-18T05:47:33;101053.66;;;-6.14;84.88
50710;BME280;37033;49.994;21.992;2022-12-18T05:50:23;101054.59;;;-6.15;84.72
50710;BME280;37033;49.994;21.992;2022-12-18T05:53:14;101057.63;;;-6.16;84.57
50710;BME280;37033;49.994;21.992;2022-12-18T05:56:07;101061.02;;;-6.17;84.28
50710;BME280;37033;49.994;21.992;2022-12-18T05:58:57;101064.30;;;-6.18;84.34
50710;BME280;37033;49.994;21.992;2022-12-18T06:01:47;101066.93;;;-6.18;84.30
50710;BME280;37033;49.994;21.992;2022-12-18T06:04:37;101070.98;;;-6.18;84.26
50710;BME280;37033;49.994;21.992;2022-12-18T06:07:27;101068.09;;;-6.17;84.35
50710;BME280;37033;49.994;21.992;2022-12-18T06:10:17;101069.77;;;-6.15;84.48
50710;BME280;37033;49.994;21.992;2022-12-18T06:13:08;101072.14;;;-6.13;84.46
50710;BME280;37033;49.994;21.992;2022-12-18T06:15:59;101076.96;;;-6.11;84.59
50710;BME280;37033;49.994;21.992;2022-12-18T06:18:51;101078.98;;;-6.09;84.65
50710;BME280;37033;49.994;21.992;2022-12-18T06:21:41;101090.80;;;-6.06;84.64
50710;BME280;37033;49.994;21.992;2022-12-18T06:24:31;101093.65;;;-6.04;84.66
50710;BME280;37033;49.994;21.992;2022-12-18T06:27:21;101091.98;;;-6.03;84.72
50710;BME280;37033;49.994;21.992;2022-12-18T06:30:13;101097.54;;;-6.01;84.73
50710;BME280;37033;49.994;21.992;2022-12-18T06:33:02;101096.74;;;-6.00;84.72
50710;BME280;37033;49.994;21.992;2022-12-18T06:35:52;101103.13;;;-5.98;84.76
50710;BME280;37033;49.994;21.992;2022-12-18T06:38:43;101105.02;;;-5.94;84.96
50710;BME280;37033;49.994;21.992;2022-12-18T06:41:33;101111.58;;;-5.91;84.88
50710;BME280;37033;49.994;21.992;2022-12-18T06:44:23;101114.02;;;-5.89;84.88
50710;BME280;37033;49.994;21.992;2022-12-18T06:47:13;101114.54;;;-5.88;84.79
50710;BME280;37033;49.994;21.992;2022-12-18T06:50:04;101115.34;;;-5.87;84.74
50710;BME280;37033;49.994;21.992;2022-12-18T06:52:54;101114.34;;;-5.85;84.77
50710;BME280;37033;49.994;21.992;2022-12-18T06:55:44;101121.58;;;-5.82;84.84
50710;BME280;37033;49.994;21.992;2022-12-18T06:58:34;101122.88;;;-5.80;84.90
50710;BME280;37033;49.994;21.992;2022-12-18T07:01:24;101127.20;;;-5.76;84.98
50710;BME280;37033;49.994;21.992;2022-12-18T07:04:14;101134.38;;;-5.72;85.03
50710;BME280;37033;49.994;21.992;2022-12-18T07:07:04;101136.09;;;-5.68;84.87
50710;BME280;37033;49.994;21.992;2022-12-18T07:09:54;101143.68;;;-5.68;84.79
50710;BME280;37033;49.994;21.992;2022-12-18T07:12:44;101149.64;;;-5.64;84.89
50710;BME280;37033;49.994;21.992;2022-12-18T07:15:35;101151.56;;;-5.61;84.99
50710;BME280;37033;49.994;21.992;2022-12-18T07:18:25;101160.25;;;-5.59;84.96
50710;BME280;37033;49.994;21.992;2022-12-18T07:21:16;101163.45;;;-5.56;84.96
50710;BME280;37033;49.994;21.992;2022-12-18T07:24:08;101164.02;;;-5.54;84.87
50710;BME280;37033;49.994;21.992;2022-12-18T07:26:58;101169.33;;;-5.51;85.01
50710;BME280;37033;49.994;21.992;2022-12-18T07:29:48;101174.56;;;-5.47;84.97
50710;BME280;37033;49.994;21.992;2022-12-18T07:32:38;101177.38;;;-5.44;84.86
50710;BME280;37033;49.994;21.992;2022-12-18T07:35:28;101181.31;;;-5.39;84.92
50710;BME280;37033;49.994;21.992;2022-12-18T07:38:18;101179.75;;;-5.33;85.04
50710;BME280;37033;49.994;21.992;2022-12-18T07:41:09;101178.48;;;-5.30;84.83
50710;BME280;37033;49.994;21.992;2022-12-18T07:44:00;101180.08;;;-5.28;84.79
50710;BME280;37033;49.994;21.992;2022-12-18T07:46:50;101184.58;;;-5.26;84.72
50710;BME280;37033;49.994;21.992;2022-12-18T07:49:40;101190.29;;;-5.24;84.76
50710;BME280;37033;49.994;21.992;2022-12-18T07:52:30;101193.39;;;-5.20;84.80
50710;BME280;37033;49.994;21.992;2022-12-18T07:55:20;101195.98;;;-5.16;84.82
50710;BME280;37033;49.994;21.992;2022-12-18T07:58:10;101206.14;;;-5.09;85.12
50710;BME280;37033;49.994;21.992;2022-12-18T08:01:06;101208.43;;;-5.03;84.75
50710;BME280;37033;49.994;21.992;2022-12-18T08:03:56;101211.05;;;-5.00;84.77
50710;BME280;37033;49.994;21.992;2022-12-18T08:06:47;101212.09;;;-4.97;84.73
50710;BME280;37033;49.994;21.992;2022-12-18T08:09:37;101214.27;;;-4.95;84.53
50710;BME280;37033;49.994;21.992;2022-12-18T08:12:27;101216.73;;;-4.92;84.54
50710;BME280;37033;49.994;21.992;2022-12-18T08:15:17;101214.54;;;-4.91;84.56
50710;BME280;37033;49.994;21.992;2022-12-18T08:18:07;101215.05;;;-4.87;84.54
50710;BME280;37033;49.994;21.992;2022-12-18T08:20:57;101221.59;;;-4.84;84.65
50710;BME280;37033;49.994;21.992;2022-12-18T08:23:47;101227.59;;;-4.81;84.52
50710;BME280;37033;49.994;21.992;2022-12-18T08:26:37;101234.02;;;-4.80;84.45
50710;BME280;37033;49.994;21.992;2022-12-18T08:29:27;101233.38;;;-4.78;84.32
50710;BME280;37033;49.994;21.992;2022-12-18T08:32:18;101242.48;;;-4.77;84.39
50710;BME280;37033;49.994;21.992;2022-12-18T08:35:09;101245.30;;;-4.73;84.57
50710;BME280;37033;49.994;21.992;2022-12-18T08:38:00;101251.78;;;-4.70;84.50
50710;BME280;37033;49.994;21.992;2022-12-18T08:40:53;101252.11;;;-4.69;84.38
50710;BME280;37033;49.994;21.992;2022-12-18T08:43:43;101252.23;;;-4.69;84.41
50710;BME280;37033;49.994;21.992;2022-12-18T08:46:51;101257.94;;;-4.66;84.32
50710;BME280;37033;49.994;21.992;2022-12-18T08:49:40;101259.13;;;-4.66;84.49
50710;BME280;37033;49.994;21.992;2022-12-18T08:52:32;101258.86;;;-4.62;84.49
50710;BME280;37033;49.994;21.992;2022-12-18T08:55:22;101254.69;;;-4.57;84.62
50710;BME280;37033;49.994;21.992;2022-12-18T08:58:13;101252.73;;;-4.51;84.63
50710;BME280;37033;49.994;21.992;2022-12-18T09:01:05;101253.46;;;-4.49;84.42
50710;BME280;37033;49.994;21.992;2022-12-18T09:03:55;101255.59;;;-4.46;84.33
50710;BME280;37033;49.994;21.992;2022-12-18T09:06:45;101261.27;;;-4.44;84.18
50710;BME280;37033;49.994;21.992;2022-12-18T09:09:35;101259.80;;;-4.42;84.27
50710;BME280;37033;49.994;21.992;2022-12-18T09:12:26;101261.99;;;-4.39;84.31
50710;BME280;37033;49.994;21.992;2022-12-18T09:15:16;101262.61;;;-4.37;84.13
50710;BME280;37033;49.994;21.992;2022-12-18T09:18:06;101260.92;;;-4.35;84.23
50710;BME280;37033;49.994;21.992;2022-12-18T09:20:57;101263.72;;;-4.32;84.27
50710;BME280;37033;49.994;21.992;2022-12-18T09:23:51;101271.52;;;-4.30;84.05
50710;BME280;37033;49.994;21.992;2022-12-18T09:26:41;101276.98;;;-4.32;83.77
50710;BME280;37033;49.994;21.992;2022-12-18T09:29:32;101276.47;;;-4.32;83.76
50710;BME280;37033;49.994;21.992;2022-12-18T09:32:22;101278.89;;;-4.31;83.79
50710;BME280;37033;49.994;21.992;2022-12-18T09:35:12;101275.30;;;-4.28;83.82
50710;BME280;37033;49.994;21.992;2022-12-18T09:38:02;101274.08;;;-4.28;83.57
50710;BME280;37033;49.994;21.992;2022-12-18T09:40:53;101273.15;;;-4.27;83.70
50710;BME280;37033;49.994;21.992;2022-12-18T09:43:49;101279.70;;;-4.28;83.47
50710;BME280;37033;49.994;21.992;2022-12-18T09:46:43;101279.23;;;-4.28;83.37
50710;BME280;37033;49.994;21.992;2022-12-18T09:49:37;101280.30;;;-4.29;83.36
50710;BME280;37033;49.994;21.992;2022-12-18T09:52:32;101280.13;;;-4.28;82.90
50710;BME280;37033;49.994;21.992;2022-12-18T09:55:27;101279.89;;;-4.31;82.97
50710;BME280;37033;49.994;21.992;2022-12-18T09:58:24;101276.20;;;-4.31;82.97
50710;BME280;37033;49.994;21.992;2022-12-18T10:01:21;101278.33;;;-4.31;82.81
50710;BME280;37033;49.994;21.992;2022-12-18T10:04:11;101282.17;;;-4.33;82.74
50710;BME280;37033;49.994;21.992;2022-12-18T10:07:06;101281.68;;;-4.33;82.72
50710;BME280;37033;49.994;21.992;2022-12-18T10:10:04;101284.77;;;-4.34;82.50
50710;BME280;37033;49.994;21.992;2022-12-18T10:13:06;101290.75;;;-4.34;82.60
50710;BME280;37033;49.994;21.992;2022-12-18T10:16:08;101287.77;;;-4.32;82.61
50710;BME280;37033;49.994;21.992;2022-12-18T10:19:08;101289.33;;;-4.29;82.75
50710;BME280;37033;49.994;21.992;2022-12-18T10:22:07;101284.15;;;-4.25;82.93
50710;BME280;37033;49.994;21.992;2022-12-18T10:25:05;101283.28;;;-4.23;82.58
50710;BME280;37033;49.994;21.992;2022-12-18T10:28:00;101284.30;;;-4.22;82.47
50710;BME280;37033;49.994;21.992;2022-12-18T10:30:56;101281.30;;;-4.22;82.41
50710;BME280;37033;49.994;21.992;2022-12-18T10:33:47;101288.58;;;-4.23;82.21
50710;BME280;37033;49.994;21.992;2022-12-18T10:36:37;101295.18;;;-4.23;82.18
50710;BME280;37033;49.994;21.992;2022-12-18T10:39:27;101293.34;;;-4.22;82.20
50710;BME280;37033;49.994;21.992;2022-12-18T10:42:19;101299.13;;;-4.21;82.02
50710;BME280;37033;49.994;21.992;2022-12-18T10:48:02;101297.58;;;-4.25;81.62
50710;BME280;37033;49.994;21.992;2022-12-18T10:50:53;101301.70;;;-4.25;81.66
50710;BME280;37033;49.994;21.992;2022-12-18T10:53:44;101303.91;;;-4.24;81.79
50710;BME280;37033;49.994;21.992;2022-12-18T10:56:41;101304.66;;;-4.22;81.79
50710;BME280;37033;49.994;21.992;2022-12-18T10:59:51;101305.19;;;-4.22;81.68
50710;BME280;37033;49.994;21.992;2022-12-18T11:02:42;101299.69;;;-4.22;81.43
50710;BME280;37033;49.994;21.992;2022-12-18T11:05:33;101299.01;;;-4.22;81.17
50710;BME280;37033;49.994;21.992;2022-12-18T11:08:25;101300.84;;;-4.23;80.79
50710;BME280;37033;49.994;21.992;2022-12-18T11:11:21;101301.79;;;-4.24;80.67
50710;BME280;37033;49.994;21.992;2022-12-18T11:14:16;101301.81;;;-4.28;80.54
50710;BME280;37033;49.994;21.992;2022-12-18T11:17:19;101306.15;;;-4.29;80.19
50710;BME280;37033;49.994;21.992;2022-12-18T11:20:29;101310.55;;;-4.31;79.82
50710;BME280;37033;49.994;21.992;2022-12-18T11:23:20;101307.81;;;-4.33;80.09
50710;BME280;37033;49.994;21.992;2022-12-18T11:26:11;101308.80;;;-4.31;80.45
50710;BME280;37033;49.994;21.992;2022-12-18T11:29:15;101307.21;;;-4.29;80.56
50710;BME280;37033;49.994;21.992;2022-12-18T11:32:29;101306.83;;;-4.25;80.59
50710;BME280;37033;49.994;21.992;2022-12-18T11:35:24;101301.86;;;-4.23;80.64
50710;BME280;37033;49.994;21.992;2022-12-18T11:38:23;101300.30;;;-4.23;80.37
50710;BME280;37033;49.994;21.992;2022-12-18T11:41:21;101300.34;;;-4.24;80.56
50710;BME280;37033;49.994;21.992;2022-12-18T11:44:38;101299.71;;;-4.22;80.51
50710;BME280;37033;49.994;21.992;2022-12-18T11:47:37;101299.63;;;-4.24;80.50
50710;BME280;37033;49.994;21.992;2022-12-18T11:50:31;101299.41;;;-4.23;80.62
50710;BME280;37033;49.994;21.992;2022-12-18T11:53:22;101301.17;;;-4.23;80.63
50710;BME280;37033;49.994;21.992;2022-12-18T11:56:26;101306.39;;;-4.21;80.53
50710;BME280;37033;49.994;21.992;2022-12-18T11:59:19;101307.27;;;-4.21;80.47
50710;BME280;37033;49.994;21.992;2022-12-18T12:02:33;101313.36;;;-4.25;80.04
50710;BME280;37033;49.994;21.992;2022-12-18T12:05:40;101312.96;;;-4.30;79.95
50710;BME280;37033;49.994;21.992;2022-12-18T12:08:34;101311.39;;;-4.30;80.26
50710;BME280;37033;49.994;21.992;2022-12-18T12:11:34;101311.85;;;-4.29;80.08
50710;BME280;37033;49.994;21.992;2022-12-18T12:14:42;101312.67;;;-4.28;80.20
50710;BME280;37033;49.994;21.992;2022-12-18T12:17:40;101308.77;;;-4.31;79.45
50710;BME280;37033;49.994;21.992;2022-12-18T12:20:45;101312.05;;;-4.35;79.36
50710;BME280;37033;49.994;21.992;2022-12-18T12:23:44;101309.73;;;-4.38;79.55
50710;BME280;37033;49.994;21.992;2022-12-18T12:26:42;101314.53;;;-4.38;79.60
50710;BME280;37033;49.994;21.992;2022-12-18T12:29:43;101315.66;;;-4.41;78.95
50710;BME280;37033;49.994;21.992;2022-12-18T12:32:49;101316.73;;;-4.45;78.75
50710;BME280;37033;49.994;21.992;2022-12-18T12:35:49;101316.17;;;-4.47;78.66
50710;BME280;37033;49.994;21.992;2022-12-18T12:38:44;101321.61;;;-4.49;78.34
50710;BME280;37033;49.994;21.992;2022-12-18T12:41:39;101328.57;;;-4.50;78.55
50710;BME280;37033;49.994;21.992;2022-12-18T12:44:53;101329.11;;;-4.50;78.28
50710;BME280;37033;49.994;21.992;2022-12-18T12:47:43;101338.27;;;-4.52;78.20
50710;BME280;37033;49.994;21.992;2022-12-18T12:50:36;101348.04;;;-4.56;78.05
50710;BME280;37033;49.994;21.992;2022-12-18T12:53:33;101348.02;;;-4.59;78.26
50710;BME280;37033;49.994;21.992;2022-12-18T12:56:29;101356.91;;;-4.59;78.32
50710;BME280;37033;49.994;21.992;2022-12-18T12:59:24;101351.73;;;-4.58;78.43
50710;BME280;37033;49.994;21.992;2022-12-18T13:02:22;101351.72;;;-4.55;78.83
50710;BME280;37033;49.994;21.992;2022-12-18T13:05:21;101352.07;;;-4.50;78.80
50710;BME280;37033;49.994;21.992;2022-12-18T13:08:24;101362.64;;;-4.49;78.80
50710;BME280;37033;49.994;21.992;2022-12-18T13:11:31;101368.98;;;-4.48;78.88
50710;BME280;37033;49.994;21.992;2022-12-18T13:14:40;101373.66;;;-4.47;79.00
50710;BME280;37033;49.994;21.992;2022-12-18T13:17:31;101372.47;;;-4.47;78.89
50710;BME280;37033;49.994;21.992;2022-12-18T13:20:21;101373.11;;;-4.49;78.96
50710;BME280;37033;49.994;21.992;2022-12-18T13:23:29;101369.48;;;-4.50;78.83
50710;BME280;37033;49.994;21.992;2022-12-18T13:26:36;101381.10;;;-4.52;78.71
50710;BME280;37033;49.994;21.992;2022-12-18T13:29:44;101384.20;;;-4.57;78.65
50710;BME280;37033;49.994;21.992;2022-12-18T13:32:34;101395.03;;;-4.61;78.57
50710;BME280;37033;49.994;21.992;2022-12-18T13:35:52;101401.39;;;-4.64;78.61
50710;BME280;37033;49.994;21.992;2022-12-18T13:38:43;101410.25;;;-4.66;78.67
50710;BME280;37033;49.994;21.992;2022-12-18T13:41:33;101416.25;;;-4.69;78.68
50710;BME280;37033;49.994;21.992;2022-12-18T13:44:29;101421.42;;;-4.70;78.84
50710;BME280;37033;49.994;21.992;2022-12-18T13:47:32;101420.91;;;-4.70;78.80
50710;BME280;37033;49.994;21.992;2022-12-18T13:50:32;101429.14;;;-4.72;78.53
50710;BME280;37033;49.994;21.992;2022-12-18T13:53:26;101436.74;;;-4.75;78.90
50710;BME280;37033;49.994;21.992;2022-12-18T13:56:24;101442.77;;;-4.77;78.76
50710;BME280;37033;49.994;21.992;2022-12-18T13:59:19;101452.21;;;-4.79;78.87
50710;BME280;37033;49.994;21.992;2022-12-18T14:02:15;101457.55;;;-4.79;79.03
50710;BME280;37033;49.994;21.992;2022-12-18T14:05:23;101463.18;;;-4.79;79.01
50710;BME280;37033;49.994;21.992;2022-12-18T14:08:14;101462.67;;;-4.82;79.08
50710;BME280;37033;49.994;21.992;2022-12-18T14:11:05;101475.46;;;-4.84;78.93
50710;BME280;37033;49.994;21.992;2022-12-18T14:13:56;101485.31;;;-4.85;79.04
50710;BME280;37033;49.994;21.992;2022-12-18T14:16:47;101490.63;;;-4.88;79.06
50710;BME280;37033;49.994;21.992;2022-12-18T14:19:37;101492.98;;;-4.92;78.99
50710;BME280;37033;49.994;21.992;2022-12-18T14:22:31;101483.23;;;-4.95;79.05
50710;BME280;37033;49.994;21.992;2022-12-18T14:25:23;101483.64;;;-4.99;78.95
50710;BME280;37033;49.994;21.992;2022-12-18T14:28:16;101489.52;;;-5.03;79.08
50710;BME280;37033;49.994;21.992;2022-12-18T14:31:19;101492.98;;;-5.04;79.20
50710;BME280;37033;49.994;21.992;2022-12-18T14:34:16;101489.09;;;-5.08;79.09
50710;BME280;37033;49.994;21.992;2022-12-18T14:37:11;101487.39;;;-5.12;78.99
50710;BME280;37033;49.994;21.992;2022-12-18T14:40:11;101495.00;;;-5.15;78.75
50710;BME280;37033;49.994;21.992;2022-12-18T14:43:02;101499.61;;;-5.22;78.68
50710;BME280;37033;49.994;21.992;2022-12-18T14:45:52;101497.61;;;-5.23;78.80
50710;BME280;37033;49.994;21.992;2022-12-18T14:48:43;101494.37;;;-5.26;78.89
50710;BME280;37033;49.994;21.992;2022-12-18T14:51:37;101496.03;;;-5.27;78.81
50710;BME280;37033;49.994;21.992;2022-12-18T14:54:28;101492.11;;;-5.30;78.64
50710;BME280;37033;49.994;21.992;2022-12-18T14:57:23;101491.42;;;-5.33;78.51
50710;BME280;37033;49.994;21.992;2022-12-18T15:00:18;101491.09;;;-5.37;78.65